Time;durP1;ratioP1;P1;durP2;ratioP2;P2;SDS_P1;SDS_P2;PMS_P1;PMS_P2;Temp;Humidity;BMP_temperature;BMP_pressure;BME280_temperature;BME280_humidity;BME280_pressure;Samples;Min_cycle;Max_cycle;Signal;HPM_P1;HPM_P2
2021/10/20 00:01:06;;;;;;;43.22;28.42;;;;;;;28.58;65.97;101246.09;5032693;28;65534;-35
2021/10/20 00:03:37;;;;;;;48.58;29.80;;;;;;;28.67;66.10;101261.16;5029865;28;69064;-34
2021/10/20 00:06:08;;;;;;;53.42;32.90;;;;;;;28.69;68.48;101262.59;5030632;28;66190;-34
2021/10/20 00:08:39;;;;;;;47.67;32.13;;;;;;;28.78;68.13;101276.81;5026820;28;69519;-34
2021/10/20 00:11:11;;;;;;;45.53;33.53;;;;;;;28.78;67.25;101270.53;5031550;28;66277;-35
2021/10/20 00:13:41;;;;;;;55.27;33.67;;;;;;;28.79;68.40;101274.94;5033338;28;71057;-35
2021/10/20 00:16:13;;;;;;;60.17;32.20;;;;;;;28.85;69.11;101283.06;5036633;28;65705;-34
2021/10/20 00:18:49;;;;;;;64.35;33.78;;;;;;;29.03;68.93;101289.81;5037209;28;69169;-35
2021/10/20 00:21:25;;;;;;;50.47;32.13;;;;;;;29.17;69.11;101307.84;5029674;28;65429;-34
2021/10/20 00:23:56;;;;;;;54.97;32.25;;;;;;;29.29;70.89;101305.41;5028691;28;69351;-35
2021/10/20 00:26:27;;;;;;;45.45;31.55;;;;;;;29.33;72.51;101307.50;5032872;28;65434;-35
2021/10/20 00:28:58;;;;;;;48.20;30.98;;;;;;;29.46;69.99;101306.72;5034940;28;70220;-35
2021/10/20 00:31:29;;;;;;;48.17;30.50;;;;;;;29.49;73.10;101294.69;5026858;28;65747;-35
2021/10/20 00:34:00;;;;;;;50.25;31.25;;;;;;;29.51;73.57;101298.03;5025954;28;71363;-35
2021/10/20 00:36:31;;;;;;;65.20;33.65;;;;;;;29.63;69.99;101301.84;5027935;28;66339;-35
2021/10/20 00:39:03;;;;;;;61.08;31.88;;;;;;;29.76;68.09;101315.44;5028166;28;70923;-35
2021/10/20 00:41:33;;;;;;;49.17;30.08;;;;;;;29.83;67.38;101313.56;5031038;28;67785;-35
2021/10/20 00:44:05;;;;;;;61.65;30.58;;;;;;;29.91;67.10;101311.72;5030863;28;69935;-36
2021/10/20 00:46:36;;;;;;;48.97;29.63;;;;;;;29.92;67.08;101322.34;5026371;28;66261;-35
2021/10/20 00:49:07;;;;;;;51.15;29.25;;;;;;;29.99;66.84;101316.97;5030632;28;71115;-34
2021/10/20 00:51:38;;;;;;;62.65;30.75;;;;;;;30.01;66.75;101304.06;5027303;28;66998;-35
2021/10/20 00:54:10;;;;;;;48.33;30.40;;;;;;;30.05;66.80;101294.50;5022472;28;70235;-35
2021/10/20 00:56:41;;;;;;;49.08;31.45;;;;;;;30.06;66.65;101297.00;5029432;28;66377;-34
2021/10/20 00:59:12;;;;;;;56.22;30.20;;;;;;;30.02;66.55;101290.31;5015639;28;69699;-35
2021/10/20 01:01:46;;;;;;;53.97;31.30;;;;;;;30.04;66.21;101282.84;5031304;28;64954;-35
2021/10/20 01:04:22;;;;;;;49.53;29.65;;;;;;;30.19;66.12;101312.41;5022496;28;69921;-35
2021/10/20 01:07:00;;;;;;;50.00;29.88;;;;;;;30.19;65.85;101304.28;5012185;28;65670;-35
2021/10/20 01:09:53;;;;;;;52.53;30.23;;;;;;;30.22;65.62;101303.91;5031237;28;69511;-34
2021/10/20 01:12:43;;;;;;;42.30;28.38;;;;;;;30.25;65.76;101311.63;5027417;28;66267;-36
2021/10/20 01:15:28;;;;;;;57.42;30.63;;;;;;;30.21;65.72;101304.94;5029030;28;69668;-35
2021/10/20 01:18:08;;;;;;;45.22;30.05;;;;;;;30.26;65.65;101313.31;5031646;28;65903;-35
2021/10/20 01:20:45;;;;;;;51.72;30.58;;;;;;;30.24;65.48;101299.13;5030658;28;70391;-35
2021/10/20 01:23:27;;;;;;;46.35;30.30;;;;;;;30.33;65.04;101323.28;5016039;28;68047;-35
2021/10/20 01:26:18;;;;;;;47.42;30.65;;;;;;;29.97;65.15;101262.22;5032658;28;70157;-34
2021/10/20 01:29:00;;;;;;;49.20;33.15;;;;;;;30.26;65.51;101313.31;5032553;28;66175;-35
2021/10/20 01:31:56;;;;;;;49.10;31.35;;;;;;;30.11;65.07;101287.44;5030104;28;69254;-35
2021/10/20 01:34:33;;;;;;;47.33;31.13;;;;;;;30.39;65.54;101327.88;5041607;28;65278;-35
2021/10/20 01:37:25;;;;;;;47.30;29.92;;;;;;;30.43;65.24;101329.16;5015538;28;69755;-35
2021/10/20 01:40:00;;;;;;;45.20;30.70;;;;;;;30.44;65.07;101319.97;5002257;28;66271;-35
2021/10/20 01:42:39;;;;;;;45.45;31.23;;;;;;;30.47;64.96;101327.69;5038672;28;68583;-35
2021/10/20 01:45:17;;;;;;;42.85;30.55;;;;;;;30.51;64.72;101326.25;5009281;28;66835;-35
2021/10/20 01:47:52;;;;;;;41.33;29.20;;;;;;;30.54;64.71;101325.81;5032088;28;69605;-36
2021/10/20 01:50:26;;;;;;;39.75;30.20;;;;;;;30.53;65.01;101329.56;5020763;28;66884;-35
2021/10/20 01:52:59;;;;;;;41.47;28.80;;;;;;;30.56;64.79;101345.38;5032741;28;70160;-36
2021/10/20 01:55:47;;;;;;;36.22;29.80;;;;;;;30.58;65.27;101343.31;4995376;28;65896;-36
2021/10/20 01:58:22;;;;;;;44.30;31.00;;;;;;;30.60;65.17;101346.66;5015806;28;70411;-35
2021/10/20 02:00:56;;;;;;;47.83;31.15;;;;;;;30.62;64.94;101344.56;5029608;28;66373;-35
2021/10/20 02:03:32;;;;;;;44.90;31.35;;;;;;;30.65;64.78;101337.91;5031530;28;71069;-35
2021/10/20 02:06:16;;;;;;;39.22;29.52;;;;;;;30.67;64.64;101324.97;5032584;28;66842;-35
2021/10/20 02:08:54;;;;;;;46.70;30.98;;;;;;;30.67;64.88;101319.56;5028709;28;69718;-35
2021/10/20 02:11:31;;;;;;;45.13;29.88;;;;;;;30.71;64.80;101337.06;5021032;28;65030;-34
2021/10/20 02:14:09;;;;;;;43.38;30.52;;;;;;;30.40;64.76;101297.09;5012351;28;68832;-35
2021/10/20 02:16:46;;;;;;;36.95;28.17;;;;;;;30.75;64.75;101353.72;5043030;28;65976;-35
2021/10/20 02:19:33;;;;;;;41.88;29.15;;;;;;;30.79;64.57;101344.16;5003093;28;70147;-35
2021/10/20 02:22:05;;;;;;;47.30;30.73;;;;;;;30.81;64.78;101336.69;5023521;28;65703;-37
2021/10/20 02:24:37;;;;;;;36.95;29.35;;;;;;;30.86;64.42;101342.31;5029705;28;70333;-35
2021/10/20 02:27:17;;;;;;;44.03;29.45;;;;;;;30.87;64.61;101335.81;5026907;28;66157;-35
2021/10/20 02:29:51;;;;;;;37.08;29.38;;;;;;;30.88;64.42;101332.94;5032043;28;69810;-34
2021/10/20 02:32:22;;;;;;;40.25;28.45;;;;;;;30.91;64.49;101334.38;5023493;28;67512;-34
2021/10/20 02:34:53;;;;;;;39.22;29.00;;;;;;;30.93;64.36;101340.44;5012846;28;70145;-34
2021/10/20 02:37:24;;;;;;;43.90;28.53;;;;;;;30.93;64.36;101329.59;5010408;28;67537;-35
2021/10/20 02:39:57;;;;;;;35.42;27.80;;;;;;;30.96;64.45;101331.88;5028388;28;70741;-35
2021/10/20 02:42:29;;;;;;;41.90;28.63;;;;;;;31.02;64.38;101333.75;5038741;28;66119;-35
2021/10/20 02:45:00;;;;;;;37.53;27.70;;;;;;;30.99;64.16;101323.34;5027829;28;69234;-34
2021/10/20 02:47:32;;;;;;;38.60;26.77;;;;;;;31.04;63.88;101320.00;5025900;28;66479;-35
2021/10/20 02:50:05;;;;;;;35.65;27.35;;;;;;;31.05;63.91;101322.47;5042574;28;70201;-34
2021/10/20 02:52:36;;;;;;;33.35;27.45;;;;;;;31.11;64.22;101324.34;5029181;28;65866;-34
2021/10/20 02:55:08;;;;;;;27.90;24.93;;;;;;;31.14;63.93;101315.78;5032478;28;69263;-36
2021/10/20 02:57:40;;;;;;;29.85;25.35;;;;;;;31.16;63.81;101313.72;5027088;28;65475;-35
2021/10/20 03:00:12;;;;;;;30.58;26.20;;;;;;;31.19;64.14;101317.03;5012890;28;70485;-35
2021/10/20 03:02:46;;;;;;;32.65;26.75;;;;;;;31.23;64.17;101318.28;5030908;28;66046;-35
2021/10/20 03:05:17;;;;;;;33.40;26.23;;;;;;;31.24;63.62;101311.81;5025391;28;69403;-35
2021/10/20 03:07:51;;;;;;;33.38;25.80;;;;;;;30.98;63.69;101272.91;5030163;28;66568;-35
2021/10/20 03:10:23;;;;;;;30.52;25.48;;;;;;;31.31;63.82;101326.16;5013220;28;69299;-35
2021/10/20 03:12:57;;;;;;;33.15;26.15;;;;;;;31.34;63.93;101320.31;5025181;28;66155;-35
2021/10/20 03:15:28;;;;;;;40.17;28.00;;;;;;;31.27;63.78;101309.50;5030306;28;70030;-36
2021/10/20 03:17:59;;;;;;;34.08;26.20;;;;;;;31.39;63.42;101317.84;5030073;28;66224;-35
2021/10/20 03:20:31;;;;;;;34.70;27.47;;;;;;;31.42;63.74;101322.00;5027283;28;70243;-34
2021/10/20 03:23:02;;;;;;;35.20;26.92;;;;;;;31.43;63.42;101321.81;5031394;28;66789;-34
2021/10/20 03:25:32;;;;;;;34.65;26.48;;;;;;;31.48;63.36;101315.72;5031264;28;69968;-35
2021/10/20 03:28:04;;;;;;;34.37;25.60;;;;;;;31.49;63.23;101296.53;5034438;28;66797;-35
2021/10/20 03:30:35;;;;;;;31.38;25.85;;;;;;;31.53;63.14;101295.06;5029371;28;69505;-36
2021/10/20 03:33:06;;;;;;;35.30;27.20;;;;;;;31.53;63.60;101286.91;5034718;28;66268;-36
2021/10/20 03:35:37;;;;;;;32.77;26.23;;;;;;;31.48;63.35;101262.34;5035470;28;70150;-36
2021/10/20 03:38:10;;;;;;;30.67;26.55;;;;;;;31.61;63.30;101281.25;5031979;28;66021;-35
2021/10/20 03:40:42;;;;;;;32.88;26.42;;;;;;;31.66;63.22;101283.31;5027323;28;69212;-36
2021/10/20 03:43:28;;;;;;;31.00;24.75;;;;;;;31.62;63.27;101265.81;5035059;28;65677;-36
2021/10/20 03:45:59;;;;;;;29.60;25.63;;;;;;;31.63;63.12;101263.94;5021045;28;68704;-35
2021/10/20 03:48:30;;;;;;;33.28;24.88;;;;;;;31.71;63.11;101269.13;5048158;28;65891;-35
2021/10/20 03:51:01;;;;;;;28.13;25.08;;;;;;;31.75;63.01;101263.03;5032659;28;70529;-35
2021/10/20 03:53:33;;;;;;;31.33;25.40;;;;;;;31.77;63.43;101265.53;5044515;28;64925;-36
2021/10/20 03:56:04;;;;;;;29.88;23.92;;;;;;;31.78;63.15;101254.47;5031646;28;69971;-35
2021/10/20 03:58:35;;;;;;;37.00;25.20;;;;;;;31.71;62.78;101237.41;5029500;28;66652;-36
2021/10/20 04:01:06;;;;;;;30.60;24.85;;;;;;;31.76;62.66;101237.59;5027321;28;69275;-36
2021/10/20 04:03:38;;;;;;;27.63;24.73;;;;;;;31.80;63.00;101237.97;5028703;28;65979;-35
2021/10/20 04:06:09;;;;;;;27.38;24.45;;;;;;;31.68;62.92;101207.16;5027391;28;69217;-36
2021/10/20 04:08:39;;;;;;;28.08;25.10;;;;;;;31.90;63.13;101238.34;5033793;28;66253;-36
2021/10/20 04:11:10;;;;;;;32.30;25.27;;;;;;;31.79;62.99;101207.31;5030496;28;69056;-37
2021/10/20 04:13:42;;;;;;;27.17;24.40;;;;;;;31.65;63.09;101180.47;5033354;28;66110;-35
2021/10/20 04:16:12;;;;;;;26.60;23.20;;;;;;;31.94;62.76;101211.63;5031259;28;70351;-36
2021/10/20 04:18:43;;;;;;;28.35;24.63;;;;;;;31.88;62.88;101199.75;5035408;28;66584;-36
2021/10/20 04:21:14;;;;;;;27.85;23.60;;;;;;;31.98;62.59;101204.69;5031316;28;69905;-35
2021/10/20 04:23:45;;;;;;;27.08;22.77;;;;;;;31.95;63.22;101183.44;5035078;28;66280;-36
2021/10/20 04:26:16;;;;;;;28.42;24.50;;;;;;;31.99;62.57;101180.06;5016633;28;69510;-34
2021/10/20 04:28:47;;;;;;;26.77;24.02;;;;;;;32.02;62.86;101181.50;5030947;28;67440;-35
2021/10/20 04:31:18;;;;;;;27.40;24.33;;;;;;;32.03;62.65;101167.69;5033182;28;70171;-36
2021/10/20 04:33:49;;;;;;;27.50;24.38;;;;;;;32.04;62.61;101172.09;5030462;28;66949;-35
2021/10/20 04:36:19;;;;;;;25.90;23.38;;;;;;;32.02;62.73;101152.47;5028108;28;70559;-35
2021/10/20 04:38:50;;;;;;;28.48;25.15;;;;;;;32.11;62.74;101157.63;5033402;28;65347;-36
2021/10/20 04:41:21;;;;;;;27.17;23.38;;;;;;;32.12;62.48;101148.44;5030584;28;70907;-35
2021/10/20 04:43:52;;;;;;;28.60;24.15;;;;;;;32.12;62.54;101132.97;5029442;28;65036;-35
2021/10/20 04:46:23;;;;;;;26.65;23.85;;;;;;;32.17;62.31;101129.59;5028643;28;70208;-36
2021/10/20 04:48:54;;;;;;;25.50;23.00;;;;;;;32.18;62.48;101120.38;5035736;28;65120;-35
2021/10/20 04:51:25;;;;;;;24.80;22.30;;;;;;;32.18;62.38;101109.53;5008432;28;71259;-36
2021/10/20 04:53:56;;;;;;;26.73;22.90;;;;;;;32.21;62.10;101107.22;5031816;28;66750;-35
2021/10/20 04:56:28;;;;;;;27.50;24.43;;;;;;;32.19;62.31;101094.94;5026206;28;70035;-34
2021/10/20 04:58:58;;;;;;;25.90;22.23;;;;;;;32.25;62.44;101100.28;5032391;28;66864;-36
2021/10/20 05:01:29;;;;;;;26.83;23.27;;;;;;;32.25;62.76;101105.72;5029895;28;69349;-35
2021/10/20 05:04:00;;;;;;;25.27;22.60;;;;;;;32.22;62.39;101095.31;5033796;28;66218;-35
2021/10/20 05:06:31;;;;;;;22.48;20.30;;;;;;;32.28;62.84;101090.84;5025714;28;69380;-36
2021/10/20 05:09:03;;;;;;;23.25;20.90;;;;;;;32.28;62.54;101088.16;5034465;28;65051;-36
2021/10/20 05:11:33;;;;;;;21.95;20.02;;;;;;;32.26;62.61;101076.66;5021465;28;69595;-35
2021/10/20 05:14:04;;;;;;;26.65;22.02;;;;;;;32.32;62.26;101073.09;5033149;28;65397;-36
2021/10/20 05:16:36;;;;;;;23.48;21.10;;;;;;;32.27;62.62;101065.59;5031181;28;69404;-35
2021/10/20 05:19:07;;;;;;;25.37;21.17;;;;;;;32.33;62.61;101065.75;5030660;28;66177;-35
2021/10/20 05:21:38;;;;;;;22.70;20.33;;;;;;;32.28;62.32;101044.72;5024804;28;69677;-36
2021/10/20 05:24:09;;;;;;;23.98;20.05;;;;;;;32.33;62.39;101039.44;5027395;28;66200;-34
2021/10/20 05:26:40;;;;;;;23.98;19.90;;;;;;;32.34;62.49;101032.13;5030132;28;70645;-35
2021/10/20 05:29:10;;;;;;;21.33;19.10;;;;;;;32.34;62.31;101011.22;5029858;28;66316;-36
2021/10/20 05:31:41;;;;;;;24.67;20.73;;;;;;;32.35;62.38;100995.78;5014455;28;69881;-36
2021/10/20 05:34:13;;;;;;;21.83;19.65;;;;;;;32.34;62.62;100989.50;5028603;28;66742;-35
2021/10/20 05:36:44;;;;;;;22.45;20.02;;;;;;;32.34;62.68;100994.94;5027068;28;69951;-36
2021/10/20 05:39:14;;;;;;;20.13;18.25;;;;;;;32.32;62.35;101012.50;5026270;28;66497;-36
2021/10/20 05:41:45;;;;;;;20.95;18.80;;;;;;;32.38;62.43;101030.63;5026116;28;70618;-35
2021/10/20 05:44:18;;;;;;;23.65;19.50;;;;;;;32.35;62.36;101018.34;5027603;28;65708;-36
2021/10/20 05:46:49;;;;;;;20.65;18.20;;;;;;;32.36;62.00;100997.44;5020468;28;69457;-35
2021/10/20 05:49:20;;;;;;;20.70;18.63;;;;;;;32.35;62.27;100983.03;5032847;28;66040;-36
2021/10/20 05:51:51;;;;;;;20.67;18.33;;;;;;;32.31;62.53;100951.97;5029079;28;71410;-35
2021/10/20 05:54:22;;;;;;;18.55;16.95;;;;;;;32.34;62.33;100951.50;5028330;28;67407;-36
2021/10/20 05:56:53;;;;;;;20.05;18.35;;;;;;;32.37;62.37;100961.91;5030412;28;70104;-35
2021/10/20 05:59:24;;;;;;;19.83;18.02;;;;;;;32.36;62.54;100959.44;5025259;28;66694;-35
2021/10/20 06:01:55;;;;;;;20.42;18.48;;;;;;;32.36;62.13;100962.16;5021796;28;70524;-35
2021/10/20 06:04:26;;;;;;;20.50;18.57;;;;;;;32.28;62.91;100955.13;5044097;28;65261;-36
2021/10/20 06:06:58;;;;;;;19.27;17.57;;;;;;;32.33;62.43;100954.47;5026206;28;70052;-37
2021/10/20 06:09:29;;;;;;;21.05;18.83;;;;;;;32.36;62.63;100954.81;5026467;28;66873;-35
2021/10/20 06:12:01;;;;;;;20.03;18.00;;;;;;;32.35;62.49;100942.31;5022038;28;70830;-35
2021/10/20 06:14:32;;;;;;;20.42;18.35;;;;;;;32.35;62.68;100931.47;5029552;28;66362;-35
2021/10/20 06:17:03;;;;;;;19.87;18.00;;;;;;;32.36;62.47;100930.41;5027610;28;69350;-35
2021/10/20 06:19:34;;;;;;;20.37;18.43;;;;;;;32.16;62.61;100889.13;5028036;28;66200;-35
2021/10/20 06:22:05;;;;;;;19.90;18.10;;;;;;;32.36;62.74;100943.97;5022900;28;70182;-35
2021/10/20 06:24:36;;;;;;;20.45;18.45;;;;;;;32.35;62.26;100942.31;5031166;28;66592;-35
2021/10/20 06:27:07;;;;;;;20.88;18.70;;;;;;;32.36;62.74;100941.25;5031540;28;71153;-35
2021/10/20 06:29:38;;;;;;;21.45;18.75;;;;;;;32.36;62.53;100943.97;5033199;28;65887;-36
2021/10/20 06:32:09;;;;;;;19.65;17.80;;;;;;;32.36;62.69;100960.25;5029415;28;69358;-36
2021/10/20 06:34:40;;;;;;;20.27;18.38;;;;;;;32.38;62.86;100966.28;5030495;28;66005;-35
2021/10/20 06:37:11;;;;;;;20.00;18.10;;;;;;;32.29;62.90;100926.94;5022791;28;70522;-35
2021/10/20 06:39:42;;;;;;;20.47;18.77;;;;;;;32.27;62.78;100907.34;5033480;28;67502;-35
2021/10/20 06:42:12;;;;;;;21.10;19.00;;;;;;;32.36;62.91;100900.53;5023368;28;70091;-36
2021/10/20 06:44:45;;;;;;;19.27;17.77;;;;;;;32.37;62.91;100880.47;5030920;28;66104;-35
2021/10/20 06:47:17;;;;;;;20.10;18.25;;;;;;;32.37;63.16;100875.03;5030370;28;70209;-35
2021/10/20 06:49:48;;;;;;;22.05;19.63;;;;;;;32.32;62.86;100855.91;5034806;28;66620;-36
2021/10/20 06:52:19;;;;;;;20.40;18.60;;;;;;;32.36;63.20;100876.09;5025232;28;69870;-35
2021/10/20 06:54:50;;;;;;;22.00;19.88;;;;;;;32.29;62.76;100875.38;5029327;28;65873;-36
2021/10/20 06:57:22;;;;;;;21.52;19.35;;;;;;;32.31;63.05;100900.38;5028333;28;70524;-35
2021/10/20 06:59:53;;;;;;;20.25;18.23;;;;;;;32.34;63.08;100913.50;5025768;28;66304;-36
2021/10/20 07:02:24;;;;;;;19.80;18.00;;;;;;;32.33;62.94;100919.19;5031115;28;70120;-35
2021/10/20 07:04:55;;;;;;;19.37;17.37;;;;;;;32.33;63.36;100938.19;5031055;28;65186;-34
2021/10/20 07:07:29;;;;;;;27.00;18.83;;;;;;;32.30;63.21;100954.91;5032747;28;69870;-35
2021/10/20 07:10:01;;;;;;;19.38;17.20;;;;;;;32.31;63.34;100972.84;5031714;28;66024;-35
2021/10/20 07:12:34;;;;;;;18.35;16.67;;;;;;;32.25;63.50;100959.13;5025984;28;69181;-35
2021/10/20 07:15:05;;;;;;;19.27;17.40;;;;;;;32.29;63.32;100964.97;5027854;28;66154;-35
2021/10/20 07:17:39;;;;;;;19.23;16.95;;;;;;;32.27;63.71;100962.47;5022589;28;43312;-36
2021/10/20 07:20:10;;;;;;;20.27;17.40;;;;;;;32.25;63.76;100944.75;5040961;28;65599;-36
2021/10/20 07:22:42;;;;;;;18.58;16.75;;;;;;;32.24;63.61;100924.09;5031404;28;68122;-36
2021/10/20 07:25:19;;;;;;;16.55;15.35;;;;;;;32.21;64.22;100902.84;5032392;28;65553;-36
2021/10/20 07:27:50;;;;;;;18.40;16.60;;;;;;;32.21;64.07;100917.22;5030459;28;69535;-35
2021/10/20 07:30:21;;;;;;;16.45;14.80;;;;;;;32.13;64.08;100917.53;5011688;28;65939;-35
2021/10/20 07:32:52;;;;;;;17.48;15.85;;;;;;;32.19;64.33;100937.50;5024018;28;69887;-37
2021/10/20 07:35:23;;;;;;;17.00;15.38;;;;;;;32.18;64.02;100933.97;5028034;28;66263;-35
2021/10/20 07:37:54;;;;;;;15.33;13.90;;;;;;;32.16;64.38;100940.69;5015882;28;69012;-35
2021/10/20 07:40:25;;;;;;;17.90;15.07;;;;;;;32.13;64.15;100943.84;5018654;28;65035;-37
2021/10/20 07:42:57;;;;;;;15.70;14.48;;;;;;;32.13;64.73;100960.13;5028893;28;68929;-37
2021/10/20 07:45:28;;;;;;;15.80;14.30;;;;;;;32.12;64.05;100947.59;5023547;28;65976;-36
2021/10/20 07:47:59;;;;;;;15.15;13.77;;;;;;;32.08;64.43;100935.56;5028056;28;69547;-36
2021/10/20 07:50:32;;;;;;;16.80;15.30;;;;;;;32.09;64.60;100931.78;5027640;28;67586;-36
2021/10/20 07:53:03;;;;;;;14.73;13.50;;;;;;;32.10;64.73;100928.03;5039974;28;69366;-35
2021/10/20 07:55:34;;;;;;;14.85;13.65;;;;;;;32.05;64.77;100926.81;5031034;28;65536;-36
2021/10/20 07:58:05;;;;;;;13.82;12.77;;;;;;;32.01;64.71;100914.78;5023685;28;69934;-35
2021/10/20 08:00:36;;;;;;;13.13;12.00;;;;;;;32.01;65.05;100914.78;5026435;28;65436;-34
2021/10/20 08:03:07;;;;;;;13.80;12.70;;;;;;;32.00;64.99;100921.25;5032983;28;69624;-34
2021/10/20 08:05:38;;;;;;;14.65;13.45;;;;;;;31.98;65.06;100920.66;5023353;28;66771;-36
2021/10/20 08:08:10;;;;;;;12.63;11.63;;;;;;;31.93;64.97;100923.22;5027138;28;69842;-36
2021/10/20 08:10:41;;;;;;;;;;;;;;;31.63;66.04;100936.66;5033793;28;65349;-35
2021/10/20 08:13:13;;;;;;;12.45;11.40;;;;;;;31.76;65.35;100900.41;5035562;28;70746;-35
2021/10/20 08:15:43;;;;;;;;;;;;;;;31.58;66.57;100910.19;5028012;28;65457;-35
2021/10/20 08:18:15;;;;;;;11.65;10.85;;;;;;;31.58;65.54;100855.97;5028680;28;70053;-35
2021/10/20 08:20:45;;;;;;;12.02;11.20;;;;;;;31.84;65.09;100886.53;5034360;28;65032;-35
2021/10/20 08:23:16;;;;;;;10.80;10.20;;;;;;;31.86;65.09;100895.28;5026866;28;71333;-36
2021/10/20 08:25:48;;;;;;;11.73;10.80;;;;;;;31.79;65.37;100891.84;5033707;28;65000;-35
2021/10/20 08:28:19;;;;;;;12.35;11.13;;;;;;;31.80;65.06;100901.63;5045827;28;69978;-35
2021/10/20 08:30:51;;;;;;;10.98;10.27;;;;;;;31.73;65.64;100906.28;5032502;28;65119;-36
2021/10/20 08:33:22;;;;;;;11.77;10.87;;;;;;;31.77;65.44;100945.47;5026913;28;70590;-35
2021/10/20 08:35:53;;;;;;;10.60;9.90;;;;;;;31.76;65.32;100965.50;5032575;28;65517;-35
2021/10/20 08:38:24;;;;;;;10.82;9.82;;;;;;;31.76;65.21;100976.34;5033583;28;70618;-36
2021/10/20 08:40:56;;;;;;;10.73;10.05;;;;;;;31.75;65.40;100974.69;5022620;28;66307;-36
2021/10/20 08:43:27;;;;;;;10.88;10.18;;;;;;;31.71;65.59;100962.66;5030066;28;70207;-35
2021/10/20 08:45:58;;;;;;;10.25;9.60;;;;;;;31.63;65.20;100952.09;5022558;28;66115;-35
2021/10/20 08:48:30;;;;;;;10.88;10.07;;;;;;;31.71;65.44;100951.81;5032250;28;70468;-35
2021/10/20 08:51:03;;;;;;;10.88;9.70;;;;;;;31.67;65.51;100939.75;5028584;28;65331;-36
2021/10/20 08:53:34;;;;;;;11.57;10.68;;;;;;;31.68;65.53;100923.25;5031908;28;69903;-35
2021/10/20 08:56:05;;;;;;;10.25;9.55;;;;;;;31.67;65.40;100918.88;5029523;28;66361;-39
2021/10/20 08:58:36;;;;;;;10.10;9.53;;;;;;;31.64;65.84;100923.91;5032330;28;70753;-36
2021/10/20 09:01:07;;;;;;;11.05;10.02;;;;;;;31.49;65.60;100916.16;5033036;28;66234;-34
2021/10/20 09:03:38;;;;;;;10.40;9.57;;;;;;;31.64;66.03;100961.88;5028515;28;70224;-35
2021/10/20 09:06:10;;;;;;;10.27;9.52;;;;;;;31.63;66.02;100968.38;5031698;28;66374;-36
2021/10/20 09:08:47;;;;;;;10.35;9.35;;;;;;;31.64;65.83;100972.72;5033392;28;70093;-35
2021/10/20 09:14:10;;;;;;;9.43;8.90;;;;;;;31.59;65.74;100944.41;5035480;28;69416;-35
2021/10/20 09:16:43;;;;;;;9.60;8.85;;;;;;;31.59;65.53;100948.97;5032553;28;66092;-36
2021/10/20 09:19:21;;;;;;;9.68;8.93;;;;;;;31.60;65.82;100940.63;5033553;28;70056;-36
2021/10/20 09:21:59;;;;;;;9.50;8.85;;;;;;;30.97;65.99;100842.38;5024586;28;66414;-35
2021/10/20 09:24:36;;;;;;;9.18;8.57;;;;;;;31.55;65.77;100937.75;5028187;28;70373;-35
2021/10/20 09:27:27;;;;;;;9.75;9.00;;;;;;;31.22;65.91;100885.72;5032946;28;65694;-35
2021/10/20 09:30:14;;;;;;;8.38;7.88;;;;;;;31.44;66.21;100914.09;5034810;28;70198;-35
2021/10/20 09:32:45;;;;;;;8.05;7.53;;;;;;;31.47;66.09;100919.06;5027133;28;65153;-34
2021/10/20 09:35:17;;;;;;;10.13;7.93;;;;;;;31.54;65.61;100949.69;5031333;28;70111;-35
2021/10/20 09:37:47;;;;;;;;;;;;;;;31.19;66.85;100964.75;5030777;28;66166;-36
2021/10/20 09:40:18;;;;;;;8.85;8.35;;;;;;;31.45;66.16;100980.81;5026554;28;70678;-36
2021/10/20 09:42:54;;;;;;;8.70;8.10;;;;;;;31.51;66.00;100995.34;5026209;28;66863;-35
2021/10/20 09:45:34;;;;;;;8.95;8.45;;;;;;;31.51;65.80;100996.22;5026907;28;69838;-35
2021/10/20 09:48:17;;;;;;;8.82;7.90;;;;;;;31.35;65.93;100984.00;5042203;28;66422;-35
2021/10/20 09:51:11;;;;;;;9.27;8.60;;;;;;;31.39;66.03;101011.53;5042488;28;70035;-35
2021/10/20 09:53:44;;;;;;;8.32;7.93;;;;;;;31.35;65.58;101004.88;5024830;28;66387;-35
2021/10/20 09:56:31;;;;;;;9.10;8.40;;;;;;;31.38;65.85;101018.81;5028283;28;69963;-35
2021/10/20 09:59:07;;;;;;;13.23;9.48;;;;;;;31.44;65.76;101021.72;5049827;28;66615;-35
2021/10/20 10:01:38;;;;;;;9.73;8.85;;;;;;;31.43;66.24;101026.31;5026046;28;70261;-35
2021/10/20 10:04:09;;;;;;;9.80;9.10;;;;;;;31.42;66.09;101046.31;5027613;28;66090;-36
2021/10/20 10:06:44;;;;;;;10.25;9.40;;;;;;;31.21;65.73;101014.16;5030759;28;70304;-35
2021/10/20 10:09:29;;;;;;;8.63;8.10;;;;;;;31.38;65.80;101067.63;5037828;28;66537;-36
2021/10/20 10:12:11;;;;;;;9.35;8.65;;;;;;;31.40;65.91;101072.84;5022782;28;69149;-35
2021/10/20 10:14:48;;;;;;;8.60;8.00;;;;;;;31.17;65.90;101047.09;5032290;28;66221;-35
2021/10/20 10:17:20;;;;;;;8.80;8.20;;;;;;;31.32;66.27;101079.31;5046151;28;70472;-35
2021/10/20 10:19:51;;;;;;;9.25;8.73;;;;;;;31.24;66.44;101065.19;5011277;28;66075;-34
2021/10/20 10:22:27;;;;;;;9.05;8.48;;;;;;;31.36;66.05;101079.72;5039832;28;70128;-35
2021/10/20 10:25:07;;;;;;;9.02;8.32;;;;;;;31.35;65.86;101072.63;5029897;28;65562;-35
2021/10/20 10:27:40;;;;;;;9.90;9.20;;;;;;;31.35;66.25;101068.03;5030351;28;69903;-35
2021/10/20 10:30:18;;;;;;;8.82;8.10;;;;;;;31.32;66.37;101063.06;5026137;28;65576;-35
2021/10/20 10:32:58;;;;;;;9.77;9.00;;;;;;;31.19;66.47;101036.03;5025161;28;71373;-36
2021/10/20 10:35:35;;;;;;;8.63;8.02;;;;;;;31.03;66.15;101010.28;5027485;28;66056;-36
2021/10/20 10:38:06;;;;;;;9.80;9.05;;;;;;;31.31;66.32;101076.81;5032175;28;70276;-35
2021/10/20 10:40:37;;;;;;;9.33;8.73;;;;;;;31.27;66.56;101092.69;5028547;28;66488;-37
2021/10/20 10:43:11;;;;;;;9.20;8.60;;;;;;;30.91;66.17;101034.53;5029497;28;71488;-35
2021/10/20 10:45:48;;;;;;;9.07;8.45;;;;;;;31.26;66.31;101098.31;5020814;28;65008;-36
2021/10/20 10:48:31;;;;;;;8.48;8.00;;;;;;;31.19;66.13;101102.94;5029539;28;69287;-36
2021/10/20 10:51:14;;;;;;;11.18;10.38;;;;;;;31.20;66.79;101091.06;5043994;28;66626;-39
2021/10/20 10:53:55;;;;;;;11.68;10.50;;;;;;;31.21;66.53;101079.19;5032344;28;70080;-35
2021/10/20 10:56:26;;;;;;;12.88;10.77;;;;;;;31.19;67.07;101068.56;5033996;28;66699;-35
2021/10/20 10:59:09;;;;;;;17.37;13.63;;;;;;;31.20;67.23;101080.22;5032131;28;70122;-34
2021/10/20 11:01:48;;;;;;;14.80;13.35;;;;;;;31.21;67.38;101076.47;5026405;28;65929;-35
2021/10/20 11:04:25;;;;;;;17.75;13.13;;;;;;;31.21;67.65;101076.47;5041588;28;69223;-35
2021/10/20 11:06:57;;;;;;;13.52;12.20;;;;;;;30.89;67.07;101041.22;5029267;28;66016;-38
2021/10/20 11:09:34;;;;;;;17.27;13.98;;;;;;;31.06;67.93;101074.88;5043482;28;68945;-36
2021/10/20 11:12:05;;;;;;;17.83;15.95;;;;;;;31.15;67.81;101083.59;5028649;28;66528;-35
2021/10/20 11:14:36;;;;;;;17.75;15.45;;;;;;;31.13;67.95;101091.09;5029964;28;69467;-35
2021/10/20 11:17:11;;;;;;;25.50;16.75;;;;;;;30.82;67.87;101045.84;5030044;28;66681;-36
2021/10/20 11:19:42;;;;;;;23.83;18.95;;;;;;;31.14;68.53;101088.16;5027902;28;70305;-35
2021/10/20 11:22:22;;;;;;;24.65;18.42;;;;;;;31.08;68.05;101071.97;5030455;28;66070;-36
2021/10/20 11:24:54;;;;;;;24.60;19.58;;;;;;;31.09;68.35;101077.16;5029625;28;69919;-36
2021/10/20 11:27:25;;;;;;;;;;;;;;;30.75;70.07;101096.47;5030382;28;66449;-37
2021/10/20 11:29:56;;;;;;;20.70;16.60;;;;;;;31.03;68.44;101090.72;5044300;28;69417;-36
2021/10/20 11:32:27;;;;;;;24.83;18.77;;;;;;;31.07;68.89;101092.81;5028510;28;66404;-35
2021/10/20 11:34:58;;;;;;;18.90;16.90;;;;;;;31.01;68.42;101093.69;5028360;28;69728;-35
2021/10/20 11:37:29;;;;;;;17.42;15.93;;;;;;;31.05;68.58;101105.72;5027143;28;65218;-36
2021/10/20 11:40:03;;;;;;;27.85;21.52;;;;;;;30.44;68.88;101003.28;5029022;28;69412;-36
2021/10/20 11:42:42;;;;;;;21.70;19.38;;;;;;;30.66;68.11;101042.53;5031260;28;65751;-36